createdAt,value
2023-07-25T00:01:51.926Z,90095.31
2023-07-25T00:04:36.848Z,90084.94
2023-07-25T00:07:21.784Z,90075.84
2023-07-25T00:10:06.711Z,90052.28
2023-07-25T00:12:51.806Z,90065.88
2023-07-25T00:15:36.741Z,90093.13
2023-07-25T00:18:21.890Z,90089.44
2023-07-25T00:21:06.653Z,90092.97
2023-07-25T00:23:51.700Z,90092.53
2023-07-25T00:26:36.570Z,90100.16
2023-07-25T00:29:21.506Z,90100.88
2023-07-25T00:32:06.525Z,90080.22
2023-07-25T00:34:51.911Z,90075.28
2023-07-25T00:37:37.045Z,90083.88
2023-07-25T00:40:21.950Z,90077.91
2023-07-25T00:43:07.359Z,90069.25
2023-07-25T00:45:52.235Z,90073.50
2023-07-25T00:48:37.167Z,90085.06
2023-07-25T00:51:21.995Z,90088.41
2023-07-25T00:54:06.962Z,90096.47
2023-07-25T00:56:52.104Z,90112.69
2023-07-25T00:59:37.022Z,90124.28
2023-07-25T01:02:22.095Z,90103.78
2023-07-25T01:05:06.964Z,90092.81
2023-07-25T01:07:52.143Z,90103.34
2023-07-25T01:10:37.022Z,90111.38
2023-07-25T01:13:22.020Z,90118.16
2023-07-25T01:16:07.020Z,90111.53
2023-07-25T01:18:51.878Z,90095.88
2023-07-25T01:21:37.038Z,90091.31
2023-07-25T01:24:21.965Z,90080.03
2023-07-25T01:27:07.426Z,90080.34
2023-07-25T01:29:52.405Z,90084.44
2023-07-25T01:32:37.571Z,90073.00
2023-07-25T01:35:22.542Z,90063.66
2023-07-25T01:38:07.251Z,90073.47
2023-07-25T01:40:52.264Z,90072.59
2023-07-25T01:43:37.187Z,90064.09
2023-07-25T01:46:22.304Z,90054.00
2023-07-25T01:49:07.271Z,90054.16
2023-07-25T01:51:52.342Z,90053.13
2023-07-25T01:54:37.406Z,90054.00
2023-07-25T01:57:22.385Z,90033.09
2023-07-25T02:00:07.347Z,90014.53
2023-07-25T02:02:53.996Z,90018.31
2023-07-25T02:05:38.617Z,90009.69
2023-07-25T02:08:23.509Z,89995.63
2023-07-25T02:11:08.479Z,89991.25
2023-07-25T02:13:53.353Z,89978.66
2023-07-25T02:16:38.373Z,89977.03
2023-07-25T02:19:23.383Z,89970.19
2023-07-25T02:22:08.167Z,89970.91
2023-07-25T02:24:53.314Z,89951.16
2023-07-25T02:27:38.193Z,89953.22
2023-07-25T02:30:23.184Z,89933.94
2023-07-25T02:33:08.227Z,89943.84
2023-07-25T02:35:53.215Z,89946.03
2023-07-25T02:38:38.218Z,89926.16
2023-07-25T02:41:23.217Z,89919.59
2023-07-25T02:44:08.178Z,89918.28
2023-07-25T02:46:53.233Z,89917.22
2023-07-25T02:49:38.219Z,89924.41
2023-07-25T02:52:23.406Z,89917.38
2023-07-25T02:55:08.251Z,89913.88
2023-07-25T02:57:53.124Z,89916.97
2023-07-25T03:00:38.025Z,89919.84
2023-07-25T03:03:23.093Z,89920.56
2023-07-25T03:06:08.116Z,89921.31
2023-07-25T03:08:53.096Z,89931.25
2023-07-25T03:11:38.113Z,89919.38
2023-07-25T03:14:23.248Z,89920.28
2023-07-25T03:17:08.195Z,89922.00
2023-07-25T03:19:53.225Z,89926.81
2023-07-25T03:22:37.994Z,89935.03
2023-07-25T03:25:23.049Z,89931.94
2023-07-25T03:28:07.963Z,89943.22
2023-07-25T03:30:52.982Z,89947.88
2023-07-25T03:33:37.771Z,89945.69
2023-07-25T03:36:22.826Z,89936.34
2023-07-25T03:39:07.915Z,89936.47
2023-07-25T03:41:52.933Z,89942.00
2023-07-25T03:44:37.819Z,89936.72
2023-07-25T03:47:22.826Z,89932.19
2023-07-25T03:50:07.790Z,89923.75
2023-07-25T03:52:52.818Z,89912.03
2023-07-25T03:55:37.775Z,89911.03
2023-07-25T03:58:22.728Z,89924.88
2023-07-25T04:01:07.668Z,89927.97
2023-07-25T04:03:52.764Z,89925.50
2023-07-25T04:06:37.484Z,89939.78
2023-07-25T04:09:22.451Z,89934.81
2023-07-25T04:12:07.261Z,89928.28
2023-07-25T04:14:52.297Z,89936.41
2023-07-25T04:17:37.468Z,89942.56
2023-07-25T04:20:22.380Z,89938.78
2023-07-25T04:23:07.497Z,89922.56
2023-07-25T04:25:52.367Z,89920.09
2023-07-25T04:28:37.482Z,89928.13
2023-07-25T04:31:22.376Z,89926.09
2023-07-25T04:34:07.318Z,89924.03
2023-07-25T04:36:52.364Z,89930.00
2023-07-25T04:39:37.346Z,89935.56
2023-07-25T04:42:22.461Z,89939.53
2023-07-25T04:45:07.409Z,89941.41
2023-07-25T04:47:52.393Z,89935.56
2023-07-25T04:50:37.282Z,89940.69
2023-07-25T04:53:22.088Z,89940.97
2023-07-25T04:56:07.105Z,89946.50
2023-07-25T04:58:52.023Z,89950.88
2023-07-25T05:01:37.126Z,89954.53
2023-07-25T05:04:21.956Z,89953.66
2023-07-25T05:07:06.715Z,89961.56
2023-07-25T05:09:51.684Z,89963.88
2023-07-25T05:12:36.902Z,89966.50
2023-07-25T05:15:21.749Z,89961.84
2023-07-25T05:18:06.861Z,89968.69
2023-07-25T05:20:51.390Z,89967.97
2023-07-25T05:23:36.467Z,89965.19
2023-07-25T05:26:21.520Z,89973.81
2023-07-25T05:29:06.443Z,89972.03
2023-07-25T05:31:51.621Z,89973.09
2023-07-25T05:34:36.604Z,89969.31
2023-07-25T05:37:21.653Z,89965.81
2023-07-25T05:40:06.662Z,89972.38
2023-07-25T05:42:51.549Z,89974.75
2023-07-25T05:45:36.582Z,89971.06
2023-07-25T05:48:21.654Z,89975.16
2023-07-25T05:51:06.711Z,89976.63
2023-07-25T05:53:51.573Z,89974.59
2023-07-25T05:56:36.717Z,89976.78
2023-07-25T05:59:21.557Z,89975.38
2023-07-25T06:02:06.560Z,89978.72
2023-07-25T06:04:51.507Z,89971.13
2023-07-25T06:07:36.555Z,89976.56
2023-07-25T06:10:21.671Z,89977.72
2023-07-25T06:13:06.765Z,89973.38
2023-07-25T06:15:51.846Z,89985.50
2023-07-25T06:18:36.803Z,89994.25
2023-07-25T06:21:21.818Z,89984.94
2023-07-25T06:24:06.754Z,89986.13
2023-07-25T06:26:51.703Z,89980.13
2023-07-25T06:29:36.663Z,89982.47
2023-07-25T06:32:21.774Z,89986.44
2023-07-25T06:35:06.817Z,89978.81
2023-07-25T06:37:51.817Z,89990.69
2023-07-25T06:40:36.749Z,89978.53
2023-07-25T06:43:21.722Z,89979.22
2023-07-25T06:46:06.806Z,89982.13
2023-07-25T06:48:51.671Z,89975.25
2023-07-25T06:51:38.901Z,89972.72
2023-07-25T06:54:23.909Z,89976.31
2023-07-25T06:57:08.871Z,89970.59
2023-07-25T06:59:53.883Z,89967.22
2023-07-25T07:02:38.908Z,89960.00
2023-07-25T07:05:30.425Z,89955.03
2023-07-25T07:08:15.596Z,89951.97
2023-07-25T07:11:00.508Z,89943.19
2023-07-25T07:13:45.523Z,89941.84
2023-07-25T07:16:30.623Z,89944.22
2023-07-25T07:19:15.776Z,89944.34
2023-07-25T07:22:00.889Z,89949.94
2023-07-25T07:24:45.834Z,89944.16
2023-07-25T07:27:30.823Z,89949.22
2023-07-25T07:30:15.831Z,89945.06
2023-07-25T07:33:00.819Z,89932.53
2023-07-25T07:35:45.704Z,89942.00
2023-07-25T07:38:30.810Z,89946.31
2023-07-25T07:41:15.841Z,89939.44
2023-07-25T07:44:00.808Z,89945.72
2023-07-25T07:46:45.969Z,89946.41
2023-07-25T07:49:30.784Z,89941.69
2023-07-25T07:52:22.982Z,89936.06
2023-07-25T07:55:14.471Z,89941.09
2023-07-25T07:57:59.483Z,89938.69
2023-07-25T08:00:44.446Z,89948.59
2023-07-25T08:03:29.509Z,89946.59
2023-07-25T08:06:14.465Z,89949.19
2023-07-25T08:08:59.527Z,89957.88
2023-07-25T08:11:44.616Z,89955.69
2023-07-25T08:14:29.505Z,89961.84
2023-07-25T08:17:14.656Z,89957.06
2023-07-25T08:19:59.524Z,89962.38
2023-07-25T08:22:44.516Z,89951.97
2023-07-25T08:25:29.521Z,89959.00
2023-07-25T08:28:14.529Z,89951.06
2023-07-25T08:30:59.487Z,89949.53
2023-07-25T08:33:44.389Z,89948.06
2023-07-25T08:39:14.506Z,89948.81
2023-07-25T08:41:59.471Z,89959.06
2023-07-25T08:44:44.445Z,89956.22
2023-07-25T08:47:29.463Z,89956.28
2023-07-25T08:50:14.239Z,89958.75
2023-07-25T08:52:59.099Z,89962.13
2023-07-25T08:55:44.087Z,89958.22
2023-07-25T08:58:29.017Z,89961.13
2023-07-25T09:01:14.050Z,89954.59
2023-07-25T09:03:59.022Z,89954.41
2023-07-25T09:06:43.846Z,89953.81
2023-07-25T09:09:28.725Z,89951.66
2023-07-25T09:12:13.747Z,89949.94
2023-07-25T09:14:58.811Z,89953.88
2023-07-25T09:17:43.841Z,89952.66
2023-07-25T09:20:31.833Z,89951.22
2023-07-25T09:23:16.698Z,89956.06
2023-07-25T09:26:01.746Z,89961.06
2023-07-25T09:28:46.758Z,89959.75
2023-07-25T09:31:32.008Z,89959.63
2023-07-25T09:34:17.388Z,89967.25
2023-07-25T09:37:02.382Z,89951.34
2023-07-25T09:39:48.072Z,89961.94
2023-07-25T09:42:34.416Z,89971.38
2023-07-25T09:45:19.401Z,89963.94
2023-07-25T09:48:04.482Z,89957.91
2023-07-25T09:50:49.261Z,89958.59
2023-07-25T09:53:34.280Z,89957.06
2023-07-25T09:56:19.301Z,89959.09
2023-07-25T09:59:07.261Z,89958.84
2023-07-25T10:01:52.797Z,89960.38
2023-07-25T10:04:38.094Z,89968.94
2023-07-25T10:07:23.120Z,89965.97
2023-07-25T10:10:08.081Z,89959.16
2023-07-25T10:12:53.152Z,89959.00
2023-07-25T10:15:38.224Z,89955.00
2023-07-25T10:18:23.276Z,89962.00
2023-07-25T10:21:08.297Z,89963.59
2023-07-25T10:23:53.355Z,89962.16
2023-07-25T10:26:38.393Z,89968.47
2023-07-25T10:29:23.601Z,89966.91
2023-07-25T10:32:11.339Z,89965.31
2023-07-25T10:34:57.742Z,89973.19
2023-07-25T10:37:42.700Z,89959.53
2023-07-25T10:40:27.911Z,89948.66
2023-07-25T10:43:12.587Z,89948.84
2023-07-25T10:45:57.588Z,89948.69
2023-07-25T10:48:42.548Z,89947.69
2023-07-25T10:51:27.464Z,89942.09
2023-07-25T10:54:12.398Z,89944.38
2023-07-25T10:56:57.408Z,89934.63
2023-07-25T10:59:42.483Z,89939.31
2023-07-25T11:02:27.587Z,89939.91
2023-07-25T11:05:12.430Z,89940.53
2023-07-25T11:07:57.290Z,89946.25
2023-07-25T11:10:42.168Z,89942.81
2023-07-25T11:13:27.103Z,89935.03
2023-07-25T11:16:12.114Z,89932.31
2023-07-25T11:18:57.244Z,89931.06
2023-07-25T11:21:42.134Z,89924.22
2023-07-25T11:24:27.237Z,89922.69
2023-07-25T11:27:12.019Z,89918.94
2023-07-25T11:29:56.927Z,89914.06
2023-07-25T11:32:41.841Z,89909.22
2023-07-25T11:35:26.816Z,89913.59
2023-07-25T11:38:11.743Z,89912.44
2023-07-25T11:40:56.799Z,89920.34
2023-07-25T11:43:43.520Z,89912.44
2023-07-25T11:46:32.403Z,89917.34
2023-07-25T11:49:28.219Z,89914.66
2023-07-25T11:52:21.375Z,89913.38
2023-07-25T11:55:06.384Z,89925.31
2023-07-25T11:57:51.353Z,89914.84
2023-07-25T12:00:36.377Z,89919.00
2023-07-25T12:03:21.336Z,89904.53
2023-07-25T12:06:06.392Z,89913.66
2023-07-25T12:08:51.066Z,89920.53
2023-07-25T12:11:36.074Z,89922.41
2023-07-25T12:14:21.004Z,89930.47
2023-07-25T12:17:05.983Z,89938.19
2023-07-25T12:19:51.442Z,89942.50
2023-07-25T12:22:36.510Z,89931.81
2023-07-25T12:25:21.539Z,89928.38
2023-07-25T12:28:06.399Z,89937.94
2023-07-25T12:30:51.601Z,89946.13
2023-07-25T12:33:36.496Z,89954.03
2023-07-25T12:36:21.434Z,89951.38
2023-07-25T12:39:06.535Z,89951.94
2023-07-25T12:41:51.401Z,89957.19
2023-07-25T12:44:36.343Z,89948.31
2023-07-25T12:47:21.339Z,89952.72
2023-07-25T12:50:06.435Z,89961.19
2023-07-25T12:52:51.269Z,89965.09
2023-07-25T12:55:37.309Z,89959.25
2023-07-25T12:58:23.702Z,89955.63
2023-07-25T13:01:08.556Z,89950.06
2023-07-25T13:03:53.637Z,89941.41
2023-07-25T13:06:38.420Z,89944.69
2023-07-25T13:09:23.408Z,89947.97
2023-07-25T13:12:08.437Z,89952.81
2023-07-25T13:14:53.424Z,89947.44
2023-07-25T13:17:38.218Z,89951.91
2023-07-25T13:20:23.112Z,89950.13
2023-07-25T13:23:08.024Z,89940.41
2023-07-25T13:25:52.995Z,89937.13
2023-07-25T13:28:38.036Z,89945.50
2023-07-25T13:31:23.012Z,89947.16
2023-07-25T13:34:08.028Z,89954.34
2023-07-25T13:36:53.018Z,89944.03
2023-07-25T13:39:37.970Z,89952.28
2023-07-25T13:42:22.965Z,89947.72
2023-07-25T13:45:07.943Z,89956.34
2023-07-25T13:47:53.061Z,89953.09
2023-07-25T13:50:50.539Z,89958.19
2023-07-25T13:53:36.903Z,89942.59
2023-07-25T13:56:21.846Z,89959.19
2023-07-25T13:59:06.912Z,89956.78
2023-07-25T14:01:51.946Z,89957.53
2023-07-25T14:04:36.924Z,89956.56
2023-07-25T14:07:21.690Z,89961.41
2023-07-25T14:10:06.725Z,89955.34
2023-07-25T14:12:51.870Z,89950.13
2023-07-25T14:15:36.835Z,89954.34
2023-07-25T14:18:21.957Z,89959.34
2023-07-25T14:21:06.970Z,89950.50
2023-07-25T14:23:52.222Z,89955.34
2023-07-25T14:26:37.655Z,89945.75
2023-07-25T14:29:22.804Z,89944.16
2023-07-25T14:32:07.721Z,89942.97
2023-07-25T14:34:52.595Z,89951.94
2023-07-25T14:37:53.548Z,89948.56
2023-07-25T14:40:40.573Z,89950.22
2023-07-25T14:43:27.238Z,89947.44
2023-07-25T14:46:12.162Z,89958.63
2023-07-25T14:48:57.092Z,89961.06
2023-07-25T14:51:42.193Z,89963.50
2023-07-25T14:54:27.086Z,89964.47
2023-07-25T14:57:11.981Z,89968.47
2023-07-25T14:59:57.078Z,89977.44
2023-07-25T15:02:42.012Z,89976.97
2023-07-25T15:05:26.959Z,89968.97
2023-07-25T15:08:11.789Z,89969.56
2023-07-25T15:10:56.909Z,89981.22
2023-07-25T15:13:41.620Z,89981.19
2023-07-25T15:16:27.615Z,89986.31
2023-07-25T15:19:12.547Z,90008.84
2023-07-25T15:21:57.604Z,89996.81
2023-07-25T15:24:42.583Z,90006.44
2023-07-25T15:27:27.558Z,90007.25
2023-07-25T15:30:12.669Z,90014.03
2023-07-25T15:32:57.709Z,90021.16
2023-07-25T15:35:42.685Z,90020.75
2023-07-25T15:38:27.629Z,90030.44
2023-07-25T15:41:12.749Z,90030.06
2023-07-25T15:43:57.823Z,90029.38
2023-07-25T15:46:42.919Z,90035.34
2023-07-25T15:49:27.834Z,90036.53
2023-07-25T15:52:13.014Z,90039.38
2023-07-25T15:54:57.965Z,90049.41
2023-07-25T15:57:42.924Z,90050.88
2023-07-25T16:00:28.011Z,90051.75
2023-07-25T16:03:12.879Z,90063.47
2023-07-25T16:05:57.838Z,90064.50
2023-07-25T16:08:42.730Z,90069.03
2023-07-25T16:11:27.817Z,90092.09
2023-07-25T16:14:12.938Z,90084.13
2023-07-25T16:16:57.886Z,90081.88
2023-07-25T16:19:42.979Z,90085.03
2023-07-25T16:22:27.632Z,90089.50
2023-07-25T16:25:12.807Z,90083.97
2023-07-25T16:27:57.773Z,90094.69
2023-07-25T16:30:42.865Z,90097.91
2023-07-25T16:33:27.712Z,90098.94
2023-07-25T16:36:12.808Z,90109.06
2023-07-25T16:38:57.732Z,90103.34
2023-07-25T16:41:42.819Z,90118.59
2023-07-25T16:44:27.951Z,90122.53
2023-07-25T16:47:12.850Z,90126.47
2023-07-25T16:49:57.843Z,90132.03
2023-07-25T16:52:42.874Z,90142.16
2023-07-25T16:55:27.950Z,90130.72
2023-07-25T16:58:13.029Z,90122.38
2023-07-25T17:00:57.982Z,90126.94
2023-07-25T17:03:43.114Z,90120.47
2023-07-25T17:06:27.962Z,90139.09
2023-07-25T17:09:12.994Z,90141.72
2023-07-25T17:11:58.004Z,90148.88
2023-07-25T17:14:42.944Z,90147.16
2023-07-25T17:17:27.943Z,90152.56
2023-07-25T17:20:12.989Z,90160.47
2023-07-25T17:22:57.900Z,90155.03
2023-07-25T17:25:42.978Z,90151.97
2023-07-25T17:28:28.105Z,90152.13
2023-07-25T17:31:12.956Z,90153.44
2023-07-25T17:33:57.965Z,90161.19
2023-07-25T17:36:43.005Z,90158.28
2023-07-25T17:39:28.094Z,90162.22
2023-07-25T17:42:12.878Z,90156.50
2023-07-25T17:44:57.797Z,90148.75
2023-07-25T17:47:42.769Z,90148.00
2023-07-25T17:50:27.632Z,90147.28
2023-07-25T17:53:13.530Z,90151.34
2023-07-25T17:55:58.465Z,90155.03
2023-07-25T17:58:43.501Z,90166.94
2023-07-25T18:01:28.419Z,90171.00
2023-07-25T18:04:13.331Z,90177.91
2023-07-25T18:06:58.367Z,90185.03
2023-07-25T18:09:43.284Z,90199.22
2023-07-25T18:12:28.252Z,90210.44
2023-07-25T18:15:13.165Z,90226.56
2023-07-25T18:17:58.374Z,90243.41
2023-07-25T18:20:43.194Z,90239.47
2023-07-25T18:23:28.274Z,90235.81
2023-07-25T18:26:13.224Z,90242.91
2023-07-25T18:28:58.178Z,90249.38
2023-07-25T18:31:43.256Z,90253.03
2023-07-25T18:34:28.217Z,90261.00
2023-07-25T18:37:13.248Z,90260.91
2023-07-25T18:39:58.156Z,90270.63
2023-07-25T18:42:43.159Z,90276.53
2023-07-25T18:45:28.076Z,90285.88
2023-07-25T18:48:13.291Z,90270.28
2023-07-25T18:50:58.255Z,90270.53
2023-07-25T18:53:43.247Z,90270.81
2023-07-25T18:56:28.156Z,90282.84
2023-07-25T18:59:13.098Z,90293.69
2023-07-25T19:01:58.191Z,90295.66
2023-07-25T19:04:43.983Z,90293.78
2023-07-25T19:07:28.986Z,90290.81
2023-07-25T19:10:14.261Z,90276.78
2023-07-25T19:12:59.801Z,90283.00
2023-07-25T19:15:44.859Z,90293.91
2023-07-25T19:18:29.708Z,90297.97
2023-07-25T19:21:14.870Z,90308.06
2023-07-25T19:23:59.827Z,90309.34
2023-07-25T19:26:44.834Z,90315.63
2023-07-25T19:29:29.454Z,90324.75
2023-07-25T19:32:14.419Z,90343.13
2023-07-25T19:34:59.662Z,90341.50
2023-07-25T19:37:44.369Z,90335.19
2023-07-25T19:40:29.477Z,90338.91
2023-07-25T19:43:14.408Z,90341.50
2023-07-25T19:45:59.751Z,90344.16
2023-07-25T19:48:44.659Z,90350.38
2023-07-25T19:51:29.766Z,90356.84
2023-07-25T19:54:14.809Z,90365.44
2023-07-25T19:56:59.738Z,90368.97
2023-07-25T19:59:44.764Z,90383.13
2023-07-25T20:02:29.885Z,90382.03
2023-07-25T20:05:14.870Z,90390.59
2023-07-25T20:07:59.847Z,90397.00
2023-07-25T20:10:44.801Z,90394.16
2023-07-25T20:13:29.693Z,90391.56
2023-07-25T20:16:14.831Z,90402.06
2023-07-25T20:18:59.842Z,90397.56
2023-07-25T20:21:44.909Z,90393.88
2023-07-25T20:24:29.983Z,90395.53
2023-07-25T20:27:14.916Z,90399.25
2023-07-25T20:30:00.045Z,90403.72
2023-07-25T20:32:45.147Z,90400.06
2023-07-25T20:35:30.080Z,90411.03
2023-07-25T20:38:15.036Z,90412.47
2023-07-25T20:40:59.978Z,90410.44
2023-07-25T20:43:45.093Z,90416.38
2023-07-25T20:46:30.475Z,90417.72
2023-07-25T20:49:15.766Z,90427.09
2023-07-25T20:52:00.758Z,90425.09
2023-07-25T20:54:45.760Z,90439.66
2023-07-25T20:57:30.784Z,90445.56
2023-07-25T21:00:15.827Z,90445.19
2023-07-25T21:03:01.036Z,90454.97
2023-07-25T21:05:45.887Z,90450.75
2023-07-25T21:08:30.870Z,90453.13
2023-07-25T21:11:15.786Z,90463.47
2023-07-25T21:14:00.823Z,90459.03
2023-07-25T21:16:45.821Z,90465.50
2023-07-25T21:19:30.747Z,90461.47
2023-07-25T21:22:15.729Z,90464.78
2023-07-25T21:25:00.787Z,90468.47
2023-07-25T21:27:45.740Z,90472.53
2023-07-25T21:30:30.737Z,90476.19
2023-07-25T21:33:15.905Z,90485.59
2023-07-25T21:36:00.941Z,90478.97
2023-07-25T21:38:45.910Z,90484.13
2023-07-25T21:41:30.807Z,90490.59
2023-07-25T21:44:15.848Z,90496.13
2023-07-25T21:47:00.778Z,90490.03
2023-07-25T21:49:45.807Z,90487.28
2023-07-25T21:52:30.687Z,90493.19
2023-07-25T21:55:15.668Z,90497.03
2023-07-25T21:58:00.731Z,90494.09
2023-07-25T22:00:45.832Z,90490.97
2023-07-25T22:03:31.402Z,90492.63
2023-07-25T22:06:17.963Z,90485.63
2023-07-25T22:09:02.878Z,90491.34
2023-07-25T22:11:47.913Z,90487.63
2023-07-25T22:14:32.840Z,90480.63
2023-07-25T22:17:17.848Z,90484.16
2023-07-25T22:20:02.838Z,90498.34
2023-07-25T22:22:47.797Z,90491.31
2023-07-25T22:25:32.702Z,90480.84
2023-07-25T22:28:17.715Z,90486.53
2023-07-25T22:31:02.853Z,90495.38
2023-07-25T22:33:47.792Z,90492.63
2023-07-25T22:36:33.030Z,90486.00
2023-07-25T22:39:18.318Z,90502.56
2023-07-25T22:42:03.445Z,90501.28
2023-07-25T22:44:48.268Z,90504.97
2023-07-25T22:47:33.231Z,90498.31
2023-07-25T22:50:18.261Z,90496.28
2023-07-25T22:53:03.115Z,90503.84
2023-07-25T22:55:48.322Z,90503.09
2023-07-25T22:58:33.364Z,90508.44
2023-07-25T23:01:18.502Z,90512.84
2023-07-25T23:04:03.357Z,90511.00
2023-07-25T23:06:48.374Z,90512.84
2023-07-25T23:09:33.342Z,90510.66
2023-07-25T23:19:10.586Z,90520.03
2023-07-25T23:21:55.528Z,90518.75
2023-07-25T23:24:40.716Z,90524.28
2023-07-25T23:27:25.656Z,90523.75
2023-07-25T23:30:10.599Z,90529.84
2023-07-25T23:32:55.566Z,90525.03
2023-07-25T23:35:40.494Z,90532.94
2023-07-25T23:38:25.372Z,90522.81
2023-07-25T23:41:10.286Z,90529.81
2023-07-25T23:43:55.311Z,90533.16
2023-07-25T23:46:40.464Z,90537.03
2023-07-25T23:49:25.425Z,90539.41
2023-07-25T23:52:10.522Z,90549.91
2023-07-25T23:54:55.644Z,90541.66
2023-07-25T23:57:40.517Z,90554.53
